createdAt,value
2018-05-17T00:00:50.062Z,955.49
2018-05-17T00:01:50.084Z,955.53
2018-05-17T00:02:50.101Z,955.55
2018-05-17T00:03:50.173Z,955.58
2018-05-17T00:04:50.143Z,955.59
2018-05-17T00:05:50.156Z,955.59
2018-05-17T00:06:50.182Z,955.6
2018-05-17T00:07:50.193Z,955.59
2018-05-17T00:08:50.273Z,955.62
2018-05-17T00:09:50.231Z,955.59
2018-05-17T00:10:50.251Z,955.6
2018-05-17T00:11:50.269Z,955.53
2018-05-17T00:12:50.287Z,955.55
2018-05-17T00:13:50.306Z,955.52
2018-05-17T00:14:50.323Z,955.59
2018-05-17T00:15:50.344Z,955.56
2018-05-17T00:16:50.360Z,955.55
2018-05-17T00:17:50.380Z,955.57
2018-05-17T00:18:50.449Z,955.54
2018-05-17T00:19:50.416Z,955.58
2018-05-17T00:20:50.435Z,955.58
2018-05-17T00:21:50.457Z,955.57
2018-05-17T00:22:50.472Z,955.56
2018-05-17T00:23:50.543Z,955.56
2018-05-17T00:24:50.509Z,955.55
2018-05-17T00:25:50.526Z,955.49
2018-05-17T00:26:50.544Z,955.55
2018-05-17T00:27:50.563Z,955.49
2018-05-17T00:28:50.581Z,955.5
2018-05-17T00:29:50.601Z,955.52
2018-05-17T00:30:50.619Z,955.45
2018-05-17T00:31:50.639Z,955.43
2018-05-17T00:32:50.654Z,955.42
2018-05-17T00:33:50.673Z,955.42
2018-05-17T00:34:50.691Z,955.4
2018-05-17T00:35:50.712Z,955.38
2018-05-17T00:36:50.733Z,955.34
2018-05-17T00:37:50.749Z,955.29
2018-05-17T00:38:50.818Z,955.27
2018-05-17T00:39:50.788Z,955.3
2018-05-17T00:40:50.805Z,955.34
2018-05-17T00:41:50.823Z,955.39
2018-05-17T00:42:50.843Z,955.27
2018-05-17T00:43:50.860Z,955.32
2018-05-17T00:44:50.877Z,955.31
2018-05-17T00:45:50.900Z,955.24
2018-05-17T00:46:50.915Z,955.21
2018-05-17T00:47:50.934Z,955.23
2018-05-17T00:48:50.952Z,955.29
2018-05-17T00:49:50.970Z,955.26
2018-05-17T00:50:50.989Z,955.25
2018-05-17T00:51:51.017Z,955.3
2018-05-17T00:52:51.029Z,955.27
2018-05-17T00:53:51.094Z,955.27
2018-05-17T00:54:51.062Z,955.22
2018-05-17T00:55:51.083Z,955.21
2018-05-17T00:56:51.099Z,955.24
2018-05-17T00:57:51.117Z,955.26
2018-05-17T00:58:51.235Z,955.29
2018-05-17T00:59:51.154Z,955.26
2018-05-17T01:00:51.171Z,955.23
2018-05-17T01:01:51.192Z,955.21
2018-05-17T01:02:51.209Z,955.22
2018-05-17T01:03:51.226Z,955.18
2018-05-17T01:04:51.245Z,955.17
2018-05-17T01:05:51.262Z,955.13
2018-05-17T01:06:51.301Z,955.14
2018-05-17T01:07:51.330Z,955.13
2018-05-17T01:08:51.367Z,955.11
2018-05-17T01:09:51.335Z,955.12
2018-05-17T01:10:51.361Z,955.11
2018-05-17T01:11:51.372Z,955.09
2018-05-17T01:12:51.394Z,955.11
2018-05-17T01:13:51.409Z,955.08
2018-05-17T01:14:51.428Z,955.1
2018-05-17T01:15:51.447Z,955.05
2018-05-17T01:16:51.463Z,955.08
2018-05-17T01:17:51.486Z,955.05
2018-05-17T01:18:51.505Z,955.01
2018-05-17T01:19:51.519Z,955.03
2018-05-17T01:20:51.541Z,955.04
2018-05-17T01:21:51.556Z,955.04
2018-05-17T01:22:51.599Z,955.03
2018-05-17T01:23:51.642Z,955.03
2018-05-17T01:24:51.612Z,955.11
2018-05-17T01:25:51.637Z,955.09
2018-05-17T01:26:51.650Z,955.13
2018-05-17T01:27:51.667Z,955.13
2018-05-17T01:28:51.686Z,955.09
2018-05-17T01:29:51.705Z,955.09
2018-05-17T01:30:51.721Z,955.12
2018-05-17T01:31:51.742Z,955.05
2018-05-17T01:32:51.761Z,955.05
2018-05-17T01:33:51.779Z,955.05
2018-05-17T01:34:51.797Z,955.02
2018-05-17T01:35:51.817Z,955.05
2018-05-17T01:36:51.834Z,955.04
2018-05-17T01:37:51.853Z,955.03
2018-05-17T01:38:52.176Z,955.07
2018-05-17T01:39:51.889Z,955.11
2018-05-17T01:40:51.908Z,955.06
2018-05-17T01:41:51.929Z,955.09
2018-05-17T01:42:51.946Z,955.11
2018-05-17T01:43:51.969Z,955.07
2018-05-17T01:44:51.983Z,955.08
2018-05-17T01:45:52.002Z,955.09
2018-05-17T01:46:52.022Z,955.06
2018-05-17T01:47:52.039Z,955.05
2018-05-17T01:48:52.057Z,955.07
2018-05-17T01:49:52.078Z,955.02
2018-05-17T01:50:52.097Z,955.08
2018-05-17T01:51:52.113Z,955.09
2018-05-17T01:52:52.132Z,955.11
2018-05-17T01:53:52.201Z,955.1
2018-05-17T01:54:52.169Z,955.13
2018-05-17T01:55:52.187Z,955.12
2018-05-17T01:56:52.207Z,955.11
2018-05-17T01:57:52.225Z,955.12
2018-05-17T01:58:52.357Z,955.14
2018-05-17T01:59:52.263Z,955.11
2018-05-17T02:00:52.281Z,955.11
2018-05-17T02:01:52.300Z,955.12
2018-05-17T02:02:52.319Z,955.17
2018-05-17T02:03:52.336Z,955.14
2018-05-17T02:04:52.355Z,955.12
2018-05-17T02:05:52.375Z,955.14
2018-05-17T02:06:52.394Z,955.13
2018-05-17T02:07:52.410Z,955.14
2018-05-17T02:08:52.481Z,955.14
2018-05-17T02:09:52.457Z,955.17
2018-05-17T02:10:52.468Z,955.15
2018-05-17T02:11:52.486Z,955.19
2018-05-17T02:12:52.506Z,955.21
2018-05-17T02:13:52.523Z,955.18
2018-05-17T02:14:52.545Z,955.17
2018-05-17T02:15:52.561Z,955.18
2018-05-17T02:16:52.580Z,955.16
2018-05-17T02:17:52.600Z,955.13
2018-05-17T02:18:52.618Z,955.11
2018-05-17T02:19:52.637Z,955.09
2018-05-17T02:20:52.654Z,955.1
2018-05-17T02:21:52.674Z,955.12
2018-05-17T02:22:52.692Z,955.11
2018-05-17T02:23:52.767Z,955.11
2018-05-17T02:24:52.730Z,955.05
2018-05-17T02:25:52.748Z,955.11
2018-05-17T02:26:52.768Z,955.05
2018-05-17T02:27:52.787Z,955.09
2018-05-17T02:28:52.826Z,955.08
2018-05-17T02:29:52.830Z,955.04
2018-05-17T02:30:52.846Z,955.07
2018-05-17T02:31:52.862Z,955.03
2018-05-17T02:32:52.883Z,955.05
2018-05-17T02:33:52.898Z,955.08
2018-05-17T02:34:52.916Z,955.09
2018-05-17T02:35:52.937Z,955.06
2018-05-17T02:36:52.953Z,955.05
2018-05-17T02:37:52.973Z,955.05
2018-05-17T02:38:53.043Z,955.04
2018-05-17T02:39:53.011Z,955.07
2018-05-17T02:40:53.036Z,955.07
2018-05-17T02:41:53.046Z,955.04
2018-05-17T02:42:53.065Z,955.04
2018-05-17T02:43:53.091Z,955.11
2018-05-17T02:44:53.104Z,955.09
2018-05-17T02:45:53.125Z,955.07
2018-05-17T02:46:53.139Z,955.08
2018-05-17T02:47:53.164Z,955.09
2018-05-17T02:48:53.175Z,955.1
2018-05-17T02:49:53.193Z,955.12
2018-05-17T02:50:53.210Z,955.1
2018-05-17T02:51:53.257Z,955.11
2018-05-17T02:52:53.249Z,955.13
2018-05-17T02:53:53.320Z,955.12
2018-05-17T02:54:53.285Z,955.14
2018-05-17T02:55:53.302Z,955.17
2018-05-17T02:56:53.321Z,955.22
2018-05-17T02:57:53.344Z,955.18
2018-05-17T02:58:53.361Z,955.22
2018-05-17T02:59:53.376Z,955.19
2018-05-17T03:00:53.394Z,955.19
2018-05-17T03:01:53.412Z,955.22
2018-05-17T03:02:53.429Z,955.19
2018-05-17T03:03:53.498Z,955.19
2018-05-17T03:04:53.465Z,955.15
2018-05-17T03:05:53.485Z,955.16
2018-05-17T03:06:53.501Z,955.16
2018-05-17T03:07:53.520Z,955.2
2018-05-17T03:08:53.586Z,955.21
2018-05-17T03:09:53.561Z,955.18
2018-05-17T03:10:53.571Z,955.24
2018-05-17T03:11:53.590Z,955.25
2018-05-17T03:12:53.609Z,955.24
2018-05-17T03:13:53.676Z,955.23
2018-05-17T03:14:53.643Z,955.21
2018-05-17T03:15:53.660Z,955.23
2018-05-17T03:16:53.680Z,955.22
2018-05-17T03:17:53.696Z,955.23
2018-05-17T03:18:53.718Z,955.24
2018-05-17T03:19:53.736Z,955.24
2018-05-17T03:20:53.754Z,955.26
2018-05-17T03:21:53.772Z,955.23
2018-05-17T03:22:53.790Z,955.22
2018-05-17T03:23:53.811Z,955.23
2018-05-17T03:24:53.827Z,955.21
2018-05-17T03:25:53.844Z,955.21
2018-05-17T03:26:53.863Z,955.17
2018-05-17T03:27:53.881Z,955.22
2018-05-17T03:28:54.049Z,955.21
2018-05-17T03:29:53.918Z,955.19
2018-05-17T03:30:53.942Z,955.21
2018-05-17T03:31:53.961Z,955.22
2018-05-17T03:32:53.973Z,955.23
2018-05-17T03:33:53.991Z,955.2
2018-05-17T03:34:54.011Z,955.22
2018-05-17T03:35:54.027Z,955.22
2018-05-17T03:36:54.047Z,955.18
2018-05-17T03:37:54.065Z,955.21
2018-05-17T03:38:54.081Z,955.23
2018-05-17T03:39:54.099Z,955.25
2018-05-17T03:40:54.117Z,955.2
2018-05-17T03:41:54.137Z,955.2
2018-05-17T03:42:54.152Z,955.19
2018-05-17T03:43:54.232Z,955.21
2018-05-17T03:44:54.194Z,955.24
2018-05-17T03:45:54.216Z,955.21
2018-05-17T03:46:54.226Z,955.19
2018-05-17T03:47:54.245Z,955.21
2018-05-17T03:48:54.265Z,955.21
2018-05-17T03:49:54.282Z,955.2
2018-05-17T03:50:54.510Z,955.16
2018-05-17T03:51:54.319Z,955.16
2018-05-17T03:52:54.339Z,955.14
2018-05-17T03:53:54.355Z,955.13
2018-05-17T03:54:54.374Z,955.14
2018-05-17T03:55:54.392Z,955.16
2018-05-17T03:56:54.411Z,955.18
2018-05-17T03:57:54.429Z,955.17
2018-05-17T03:58:54.499Z,955.17
2018-05-17T03:59:54.470Z,955.2
2018-05-17T04:00:54.484Z,955.15
2018-05-17T04:01:54.503Z,955.19
2018-05-17T04:02:54.521Z,955.2
2018-05-17T04:03:54.541Z,955.21
2018-05-17T04:04:54.561Z,955.23
2018-05-17T04:05:54.579Z,955.22
2018-05-17T04:06:54.597Z,955.23
2018-05-17T04:07:54.615Z,955.21
2018-05-17T04:08:54.634Z,955.21
2018-05-17T04:09:54.654Z,955.23
2018-05-17T04:10:54.673Z,955.19
2018-05-17T04:11:54.689Z,955.2
2018-05-17T04:12:54.714Z,955.2
2018-05-17T04:13:54.825Z,955.18
2018-05-17T04:14:54.743Z,955.15
2018-05-17T04:15:54.760Z,955.2
2018-05-17T04:16:54.779Z,955.22
2018-05-17T04:17:54.799Z,955.2
2018-05-17T04:18:54.816Z,955.21
2018-05-17T04:19:54.835Z,955.21
2018-05-17T04:20:54.857Z,955.17
2018-05-17T04:21:54.873Z,955.17
2018-05-17T04:22:54.891Z,955.21
2018-05-17T04:23:54.913Z,955.2
2018-05-17T04:24:54.935Z,955.21
2018-05-17T04:25:54.955Z,955.19
2018-05-17T04:26:54.972Z,955.17
2018-05-17T04:27:54.990Z,955.21
2018-05-17T04:28:55.069Z,955.23
2018-05-17T04:29:55.028Z,955.25
2018-05-17T04:30:55.046Z,955.26
2018-05-17T04:31:55.065Z,955.23
2018-05-17T04:32:55.086Z,955.28
2018-05-17T04:33:55.102Z,955.28
2018-05-17T04:34:55.122Z,955.26
2018-05-17T04:35:55.147Z,955.21
2018-05-17T04:36:55.161Z,955.23
2018-05-17T04:37:55.180Z,955.24
2018-05-17T04:38:55.197Z,955.25
2018-05-17T04:39:55.218Z,955.23
2018-05-17T04:40:55.241Z,955.16
2018-05-17T04:41:55.259Z,955.21
2018-05-17T04:42:55.277Z,955.24
2018-05-17T04:43:55.354Z,955.24
2018-05-17T04:44:55.312Z,955.23
2018-05-17T04:45:55.333Z,955.25
2018-05-17T04:46:55.352Z,955.24
2018-05-17T04:47:55.372Z,955.28
2018-05-17T04:48:55.391Z,955.26
2018-05-17T04:49:55.410Z,955.24
2018-05-17T04:50:55.432Z,955.24
2018-05-17T04:51:55.451Z,955.26
2018-05-17T04:52:55.469Z,955.26
2018-05-17T04:53:55.487Z,955.3
2018-05-17T04:54:55.508Z,955.34
2018-05-17T04:55:55.526Z,955.31
2018-05-17T04:56:55.549Z,955.33
2018-05-17T04:57:55.564Z,955.39
2018-05-17T04:58:55.637Z,955.37
2018-05-17T04:59:55.602Z,955.37
2018-05-17T05:00:55.621Z,955.38
2018-05-17T05:01:55.642Z,955.4
2018-05-17T05:02:55.698Z,955.39
2018-05-17T05:03:55.681Z,955.4
2018-05-17T05:04:55.699Z,955.43
2018-05-17T05:05:55.720Z,955.41
2018-05-17T05:06:55.737Z,955.39
2018-05-17T05:07:55.758Z,955.43
2018-05-17T05:08:55.879Z,955.43
2018-05-17T05:09:55.798Z,955.45
2018-05-17T05:10:55.817Z,955.43
2018-05-17T05:11:55.838Z,955.4
2018-05-17T05:12:55.861Z,955.47
2018-05-17T05:13:55.927Z,955.45
2018-05-17T05:14:55.895Z,955.47
2018-05-17T05:15:55.915Z,955.47
2018-05-17T05:16:55.937Z,955.47
2018-05-17T05:17:55.956Z,955.51
2018-05-17T05:18:56.075Z,955.49
2018-05-17T05:19:55.997Z,955.51
2018-05-17T05:20:56.014Z,955.5
2018-05-17T05:21:56.034Z,955.51
2018-05-17T05:22:56.053Z,955.5
2018-05-17T05:23:56.074Z,955.45
2018-05-17T05:24:56.093Z,955.52
2018-05-17T05:25:56.112Z,955.54
2018-05-17T05:26:56.131Z,955.52
2018-05-17T05:27:56.151Z,955.51
2018-05-17T05:28:56.220Z,955.52
2018-05-17T05:29:56.189Z,955.55
2018-05-17T05:30:56.212Z,955.57
2018-05-17T05:31:56.232Z,955.52
2018-05-17T05:32:56.247Z,955.56
2018-05-17T05:33:56.267Z,955.61
2018-05-17T05:34:56.289Z,955.61
2018-05-17T05:35:56.306Z,955.55
2018-05-17T05:36:56.326Z,955.59
2018-05-17T05:37:56.346Z,955.6
2018-05-17T05:38:56.370Z,955.64
2018-05-17T05:39:56.385Z,955.65
2018-05-17T05:40:56.401Z,955.66
2018-05-17T05:41:56.422Z,955.63
2018-05-17T05:42:56.442Z,955.68
2018-05-17T05:43:56.511Z,955.66
2018-05-17T05:44:56.479Z,955.67
2018-05-17T05:45:56.499Z,955.65
2018-05-17T05:46:56.520Z,955.63
2018-05-17T05:47:56.541Z,955.67
2018-05-17T05:48:56.560Z,955.66
2018-05-17T05:49:56.579Z,955.7
2018-05-17T05:50:56.598Z,955.63
2018-05-17T05:51:56.618Z,955.63
2018-05-17T05:52:56.640Z,955.63
2018-05-17T05:53:56.658Z,955.65
2018-05-17T05:54:56.685Z,955.64
2018-05-17T05:55:56.696Z,955.65
2018-05-17T05:56:56.717Z,955.65
2018-05-17T05:57:56.737Z,955.69
2018-05-17T05:58:56.808Z,955.67
2018-05-17T05:59:56.777Z,955.63
2018-05-17T06:00:56.797Z,955.62
2018-05-17T06:01:56.817Z,955.58
2018-05-17T06:02:56.836Z,955.59
2018-05-17T06:03:56.907Z,955.61
2018-05-17T06:04:56.877Z,955.59
2018-05-17T06:05:56.901Z,955.54
2018-05-17T06:06:56.918Z,955.57
2018-05-17T06:07:56.939Z,955.62
2018-05-17T06:08:56.958Z,955.6
2018-05-17T06:09:56.977Z,955.61
2018-05-17T06:10:57.001Z,955.67
2018-05-17T06:11:57.021Z,955.68
2018-05-17T06:12:57.039Z,955.69
2018-05-17T06:13:57.109Z,955.69
2018-05-17T06:14:57.081Z,955.69
2018-05-17T06:15:57.100Z,955.71
2018-05-17T06:16:57.121Z,955.72
2018-05-17T06:17:57.140Z,955.79
2018-05-17T06:18:57.161Z,955.75
2018-05-17T06:19:57.182Z,955.77
2018-05-17T06:20:57.204Z,955.82
2018-05-17T06:21:57.224Z,955.78
2018-05-17T06:22:57.244Z,955.83
2018-05-17T06:23:57.264Z,955.79
2018-05-17T06:24:57.284Z,955.81
2018-05-17T06:25:57.306Z,955.8
2018-05-17T06:26:57.328Z,955.8
2018-05-17T06:27:57.346Z,955.86
2018-05-17T06:28:57.419Z,955.82
2018-05-17T06:29:57.390Z,955.83
2018-05-17T06:30:57.410Z,955.84
2018-05-17T06:31:57.430Z,955.83
2018-05-17T06:32:57.452Z,955.83
2018-05-17T06:33:57.474Z,955.91
2018-05-17T06:34:57.492Z,955.86
2018-05-17T06:35:57.513Z,955.85
2018-05-17T06:36:57.535Z,955.88
2018-05-17T06:37:57.756Z,955.91
2018-05-17T06:38:57.574Z,955.89
2018-05-17T06:39:57.597Z,955.92
2018-05-17T06:40:57.618Z,955.93
2018-05-17T06:41:57.636Z,955.99
2018-05-17T06:42:57.659Z,955.96
2018-05-17T06:43:57.755Z,956
2018-05-17T06:44:57.901Z,955.97
2018-05-17T06:45:57.724Z,955.98
2018-05-17T06:46:57.740Z,955.98
2018-05-17T06:47:57.761Z,956.02
2018-05-17T06:48:57.779Z,956.02
2018-05-17T06:49:57.804Z,956.04
2018-05-17T06:50:57.822Z,956.07
2018-05-17T06:51:57.935Z,956.09
2018-05-17T06:52:57.864Z,956.06
2018-05-17T06:53:57.886Z,956.05
2018-05-17T06:54:57.910Z,956.1
2018-05-17T06:55:57.929Z,956.01
2018-05-17T06:56:57.950Z,956.06
2018-05-17T06:57:57.971Z,956.11
2018-05-17T06:58:58.042Z,956.05
2018-05-17T06:59:58.013Z,956.07
2018-05-17T07:00:58.115Z,956.07
2018-05-17T07:01:58.058Z,956.06
2018-05-17T07:02:58.078Z,956.11
2018-05-17T07:03:58.148Z,956.09
2018-05-17T07:04:58.120Z,956.01
2018-05-17T07:05:58.142Z,956.02
2018-05-17T07:06:58.163Z,956.07
2018-05-17T07:07:58.185Z,956.09
2018-05-17T07:08:58.207Z,956.02
2018-05-17T07:09:58.229Z,956.01
2018-05-17T07:10:58.250Z,956.06
2018-05-17T07:11:58.272Z,956.1
2018-05-17T07:12:58.294Z,956.11
2018-05-17T07:13:58.316Z,956.09
2018-05-17T07:14:58.352Z,956.04
2018-05-17T07:15:58.385Z,956.04
2018-05-17T07:16:58.380Z,956.04
2018-05-17T07:17:58.526Z,956.09
2018-05-17T07:18:58.477Z,956.12
2018-05-17T07:19:58.446Z,956.14
2018-05-17T07:20:58.468Z,956.1
2018-05-17T07:21:58.490Z,956.16
2018-05-17T07:22:58.511Z,956.13
2018-05-17T07:23:58.534Z,956.11
2018-05-17T07:24:58.555Z,956.09
2018-05-17T07:25:58.576Z,956.11
2018-05-17T07:26:58.598Z,956.07
2018-05-17T07:27:58.621Z,956.15
2018-05-17T07:28:58.642Z,956.13
2018-05-17T07:29:58.665Z,956.19
2018-05-17T07:30:58.685Z,956.1
2018-05-17T07:31:58.708Z,956.07
2018-05-17T07:32:58.729Z,956.07
2018-05-17T07:33:58.801Z,956.08
2018-05-17T07:34:58.773Z,956.05
2018-05-17T07:35:58.801Z,956.04
2018-05-17T07:36:58.815Z,956.11
2018-05-17T07:37:58.857Z,956.14
2018-05-17T07:38:58.861Z,956.14
2018-05-17T07:39:58.881Z,956.11
2018-05-17T07:40:58.904Z,956.12
2018-05-17T07:41:58.926Z,956.11
2018-05-17T07:42:58.948Z,956.13
2018-05-17T07:43:58.968Z,956.17
2018-05-17T07:44:58.991Z,956.13
2018-05-17T07:45:59.013Z,956.18
2018-05-17T07:46:59.035Z,956.18
2018-05-17T07:47:59.057Z,956.19
2018-05-17T07:48:59.129Z,956.19
2018-05-17T07:49:59.102Z,956.22
2018-05-17T07:50:59.123Z,956.22
2018-05-17T07:51:59.144Z,956.21
2018-05-17T07:52:59.166Z,956.21
2018-05-17T07:53:59.188Z,956.23
2018-05-17T07:54:59.209Z,956.3
2018-05-17T07:55:59.231Z,956.24
2018-05-17T07:56:59.260Z,956.26
2018-05-17T07:57:59.276Z,956.26
2018-05-17T07:58:59.301Z,956.22
2018-05-17T07:59:59.321Z,956.24
2018-05-17T08:00:59.358Z,956.29
2018-05-17T08:01:59.369Z,956.26
2018-05-17T08:02:59.388Z,956.23
2018-05-17T08:03:59.459Z,956.23
2018-05-17T08:04:59.432Z,956.3
2018-05-17T08:05:59.454Z,956.27
2018-05-17T08:06:59.478Z,956.3
2018-05-17T08:07:59.499Z,956.26
2018-05-17T08:08:59.521Z,956.29
2018-05-17T08:09:59.542Z,956.24
2018-05-17T08:10:59.564Z,956.2
2018-05-17T08:11:59.586Z,956.22
2018-05-17T08:12:59.609Z,956.23
2018-05-17T08:13:59.631Z,956.21
2018-05-17T08:14:59.656Z,956.24
2018-05-17T08:15:59.676Z,956.3
2018-05-17T08:16:59.765Z,956.3
2018-05-17T08:17:59.794Z,956.29
2018-05-17T08:18:59.792Z,956.28
2018-05-17T08:19:59.764Z,956.31
2018-05-17T08:20:59.787Z,956.29
2018-05-17T08:21:59.809Z,956.3
2018-05-17T08:22:59.850Z,956.27
2018-05-17T08:23:59.861Z,956.32
2018-05-17T08:24:59.874Z,956.28
2018-05-17T08:25:59.905Z,956.3
2018-05-17T08:26:59.926Z,956.31
2018-05-17T08:27:59.944Z,956.4
2018-05-17T08:28:59.979Z,956.36
2018-05-17T08:29:59.989Z,956.32
2018-05-17T08:31:00.010Z,956.35
2018-05-17T08:32:00.037Z,956.34
2018-05-17T08:33:00.053Z,956.42
2018-05-17T08:34:00.127Z,956.39
2018-05-17T08:35:00.098Z,956.38
2018-05-17T08:36:00.121Z,956.36
2018-05-17T08:37:00.143Z,956.38
2018-05-17T08:38:00.165Z,956.41
2018-05-17T08:39:00.288Z,956.47
2018-05-17T08:40:00.221Z,956.43
2018-05-17T08:41:00.233Z,956.42
2018-05-17T08:42:00.253Z,956.39
2018-05-17T08:43:00.276Z,956.4
2018-05-17T08:44:00.299Z,956.4
2018-05-17T08:45:00.325Z,956.38
2018-05-17T08:46:00.343Z,956.39
2018-05-17T08:47:00.365Z,956.39
2018-05-17T08:48:00.387Z,956.39
2018-05-17T08:49:00.560Z,956.46
2018-05-17T08:50:00.433Z,956.48
2018-05-17T08:51:00.454Z,956.48
2018-05-17T08:52:00.481Z,956.49
2018-05-17T08:53:00.502Z,956.51
2018-05-17T08:54:00.524Z,956.51
2018-05-17T08:55:00.548Z,956.48
2018-05-17T08:56:00.578Z,956.49
2018-05-17T08:57:00.593Z,956.51
2018-05-17T08:58:00.615Z,956.5
2018-05-17T08:59:00.637Z,956.46
2018-05-17T09:00:00.659Z,956.49
2018-05-17T09:01:00.684Z,956.52
2018-05-17T09:02:00.704Z,956.51
2018-05-17T09:03:00.729Z,956.51
2018-05-17T09:04:00.797Z,956.52
2018-05-17T09:05:00.778Z,956.53
2018-05-17T09:06:00.793Z,956.56
2018-05-17T09:07:00.819Z,956.55
2018-05-17T09:08:00.835Z,956.58
2018-05-17T09:09:00.859Z,956.6
2018-05-17T09:10:00.881Z,956.61
2018-05-17T09:11:00.905Z,956.68
2018-05-17T09:12:00.929Z,956.63
2018-05-17T09:13:00.948Z,956.7
2018-05-17T09:14:00.972Z,956.69
2018-05-17T09:15:00.995Z,956.69
2018-05-17T09:16:01.016Z,956.63
2018-05-17T09:17:01.045Z,956.74
2018-05-17T09:18:01.066Z,956.68
2018-05-17T09:19:01.135Z,956.65
2018-05-17T09:20:01.161Z,956.67
2018-05-17T09:21:01.130Z,956.62
2018-05-17T09:22:01.151Z,956.61
2018-05-17T09:23:01.174Z,956.59
2018-05-17T09:24:01.196Z,956.63
2018-05-17T09:25:01.220Z,956.66
2018-05-17T09:26:01.240Z,956.69
2018-05-17T09:27:01.264Z,956.7
2018-05-17T09:28:01.291Z,956.67
2018-05-17T09:29:01.311Z,956.65
2018-05-17T09:30:01.333Z,956.64
2018-05-17T09:31:01.363Z,956.63
2018-05-17T09:32:01.381Z,956.65
2018-05-17T09:33:01.505Z,956.64
2018-05-17T09:34:01.475Z,956.71
2018-05-17T09:35:01.446Z,956.69
2018-05-17T09:36:01.470Z,956.65
2018-05-17T09:37:01.493Z,956.7
2018-05-17T09:38:01.514Z,956.69
2018-05-17T09:39:01.541Z,956.69
2018-05-17T09:40:01.561Z,956.69
2018-05-17T09:41:01.588Z,956.68
2018-05-17T09:42:01.606Z,956.63
2018-05-17T09:43:01.630Z,956.71
2018-05-17T09:44:01.653Z,956.72
2018-05-17T09:45:01.676Z,956.76
2018-05-17T09:46:01.700Z,956.74
2018-05-17T09:47:01.723Z,956.77
2018-05-17T09:48:01.745Z,956.82
2018-05-17T09:49:01.825Z,956.78
2018-05-17T09:50:01.796Z,956.78
2018-05-17T09:51:01.818Z,956.8
2018-05-17T09:52:01.841Z,956.8
2018-05-17T09:53:01.872Z,956.8
2018-05-17T09:54:01.997Z,956.86
2018-05-17T09:55:02.021Z,956.84
2018-05-17T09:56:01.941Z,956.84
2018-05-17T09:57:01.960Z,956.82
2018-05-17T09:58:01.986Z,956.86
2018-05-17T09:59:02.013Z,956.84
2018-05-17T10:00:02.036Z,956.87
2018-05-17T10:01:02.055Z,956.8
2018-05-17T10:02:02.085Z,956.87
2018-05-17T10:03:02.112Z,956.85
2018-05-17T10:04:02.129Z,956.81
2018-05-17T10:05:02.157Z,956.84
2018-05-17T10:06:02.183Z,956.81
2018-05-17T10:07:02.230Z,956.85
2018-05-17T10:08:02.232Z,956.84
2018-05-17T10:09:02.307Z,956.87
2018-05-17T10:10:02.282Z,956.84
2018-05-17T10:11:02.306Z,956.83
2018-05-17T10:12:02.331Z,956.78
2018-05-17T10:13:02.355Z,956.81
2018-05-17T10:14:02.428Z,956.86
2018-05-17T10:15:02.405Z,956.78
2018-05-17T10:16:02.428Z,956.89
2018-05-17T10:17:02.453Z,956.81
2018-05-17T10:18:02.476Z,956.85
2018-05-17T10:19:02.550Z,956.89
2018-05-17T10:20:02.527Z,956.85
2018-05-17T10:21:02.547Z,956.8
2018-05-17T10:22:02.571Z,956.89
2018-05-17T10:23:02.684Z,956.86
2018-05-17T10:24:02.617Z,956.87
2018-05-17T10:25:02.643Z,956.86
2018-05-17T10:26:02.665Z,956.85
2018-05-17T10:27:02.693Z,956.85
2018-05-17T10:28:02.712Z,956.82
2018-05-17T10:29:02.736Z,956.81
2018-05-17T10:30:02.766Z,956.83
2018-05-17T10:31:02.783Z,956.83
2018-05-17T10:32:02.807Z,956.83
2018-05-17T10:33:02.831Z,956.86
2018-05-17T10:34:02.913Z,956.83
2018-05-17T10:35:02.877Z,956.85
2018-05-17T10:36:02.900Z,956.84
2018-05-17T10:37:02.925Z,956.84
2018-05-17T10:38:02.948Z,956.86
2018-05-17T10:39:02.972Z,956.88
2018-05-17T10:40:02.995Z,956.88
2018-05-17T10:41:03.019Z,956.93
2018-05-17T10:42:03.043Z,956.9
2018-05-17T10:43:03.067Z,956.92
2018-05-17T10:44:03.091Z,956.88
2018-05-17T10:45:03.118Z,956.9
2018-05-17T10:46:03.141Z,956.93
2018-05-17T10:47:03.165Z,956.89
2018-05-17T10:48:03.189Z,956.91
2018-05-17T10:49:03.362Z,956.91
2018-05-17T10:50:03.238Z,956.87
2018-05-17T10:51:03.263Z,956.9
2018-05-17T10:52:03.287Z,956.89
2018-05-17T10:53:03.313Z,956.84
2018-05-17T10:54:03.336Z,956.83
2018-05-17T10:55:03.360Z,956.91
2018-05-17T10:56:03.384Z,956.89
2018-05-17T10:57:03.411Z,956.89
2018-05-17T10:58:03.439Z,956.98
2018-05-17T10:59:03.509Z,956.99
2018-05-17T11:00:03.484Z,956.99
2018-05-17T11:01:03.510Z,957.05
2018-05-17T11:02:03.535Z,956.92
2018-05-17T11:03:03.562Z,956.96
2018-05-17T11:04:03.588Z,956.91
2018-05-17T11:05:03.613Z,956.94
2018-05-17T11:06:03.639Z,956.96
2018-05-17T11:07:03.685Z,957.04
2018-05-17T11:08:03.693Z,956.96
2018-05-17T11:09:03.719Z,957
2018-05-17T11:10:03.747Z,957.05
2018-05-17T11:11:03.772Z,956.97
2018-05-17T11:12:03.801Z,956.88
2018-05-17T11:13:03.826Z,956.91
2018-05-17T11:14:03.904Z,956.86
2018-05-17T11:15:03.880Z,956.89
2018-05-17T11:16:03.906Z,956.99
2018-05-17T11:17:03.934Z,957
2018-05-17T11:18:03.969Z,957.04
2018-05-17T11:19:03.987Z,957.06
2018-05-17T11:20:04.013Z,957.02
2018-05-17T11:21:04.040Z,957.09
2018-05-17T11:22:04.069Z,957.02
2018-05-17T11:23:04.096Z,957.06
2018-05-17T11:24:04.123Z,957.06
2018-05-17T11:25:04.155Z,957.06
2018-05-17T11:26:04.180Z,957.1
2018-05-17T11:27:04.206Z,957.06
2018-05-17T11:28:04.233Z,957.06
2018-05-17T11:29:04.414Z,957.02
2018-05-17T11:30:04.291Z,957.11
2018-05-17T11:31:04.340Z,957.04
2018-05-17T11:32:04.349Z,956.93
2018-05-17T11:33:04.448Z,956.95
2018-05-17T11:34:04.405Z,956.92
2018-05-17T11:35:04.434Z,956.97
2018-05-17T11:36:04.464Z,956.92
2018-05-17T11:37:04.492Z,956.88
2018-05-17T11:38:04.521Z,956.91
2018-05-17T11:39:04.558Z,956.86
2018-05-17T11:40:04.577Z,956.86
2018-05-17T11:41:04.605Z,956.84
2018-05-17T11:42:04.634Z,956.92
2018-05-17T11:43:04.660Z,956.87
2018-05-17T11:44:04.831Z,956.86
2018-05-17T11:45:04.717Z,956.84
2018-05-17T11:46:04.747Z,956.82
2018-05-17T11:47:04.778Z,956.85
2018-05-17T11:48:04.800Z,956.9
2018-05-17T11:49:04.826Z,956.86
2018-05-17T11:50:04.855Z,956.88
2018-05-17T11:51:04.881Z,956.85
2018-05-17T11:52:04.907Z,956.8
2018-05-17T11:53:04.936Z,956.8
2018-05-17T11:54:04.962Z,956.78
2018-05-17T11:55:04.995Z,956.75
2018-05-17T11:56:05.014Z,956.8
2018-05-17T11:57:05.041Z,956.77
2018-05-17T11:58:05.067Z,956.7
2018-05-17T11:59:05.148Z,956.69
2018-05-17T12:00:05.120Z,956.7
2018-05-17T12:01:05.148Z,956.61
2018-05-17T12:02:05.174Z,956.61
2018-05-17T12:03:05.211Z,956.57
2018-05-17T12:04:05.226Z,956.57
2018-05-17T12:05:05.253Z,956.5
2018-05-17T12:06:05.279Z,956.58
2018-05-17T12:07:05.307Z,956.59
2018-05-17T12:08:05.330Z,956.53
2018-05-17T12:09:05.362Z,956.56
2018-05-17T12:10:05.382Z,956.56
2018-05-17T12:11:05.406Z,956.49
2018-05-17T12:12:05.432Z,956.56
2018-05-17T12:13:05.455Z,956.58
2018-05-17T12:14:05.632Z,956.57
2018-05-17T12:15:05.506Z,956.59
2018-05-17T12:16:05.532Z,956.6
2018-05-17T12:17:05.556Z,956.63
2018-05-17T12:18:05.583Z,956.71
2018-05-17T12:19:05.605Z,956.65
2018-05-17T12:20:05.633Z,956.63
2018-05-17T12:21:05.655Z,956.69
2018-05-17T12:22:05.677Z,956.67
2018-05-17T12:23:05.763Z,956.7
2018-05-17T12:24:05.729Z,956.75
2018-05-17T12:25:05.750Z,956.7
2018-05-17T12:26:05.781Z,956.69
2018-05-17T12:27:05.999Z,956.76
2018-05-17T12:28:05.822Z,956.7
2018-05-17T12:29:05.900Z,956.74
2018-05-17T12:30:05.868Z,956.74
2018-05-17T12:31:05.894Z,956.7
2018-05-17T12:32:05.916Z,956.81